Time;durP1;ratioP1;P1;durP2;ratioP2;P2;SDS_P1;SDS_P2;PMS_P1;PMS_P2;Temp;Humidity;BMP_temperature;BMP_pressure;BME280_temperature;BME280_humidity;BME280_pressure;Samples;Min_cycle;Max_cycle;Signal;HPM_P1;HPM_P2
2022/08/22 00:01:20;;;;;;;9.32;5.00;;;;;;;26.93;51.53;97944.19;4957362;29;20070;-78
2022/08/22 00:04:07;;;;;;;8.07;4.30;;;;;;;26.95;51.50;97950.09;4924266;29;20035;-78
2022/08/22 00:06:40;;;;;;;12.70;4.97;;;;;;;26.95;51.34;97949.31;4939460;29;20024;-78
2022/08/22 00:09:06;;;;;;;6.53;4.78;;;;;;;26.93;51.44;97944.19;4924451;29;20046;-77
2022/08/22 00:11:49;;;;;;;8.80;5.28;;;;;;;26.89;51.30;97948.41;4956842;29;20051;-78
2022/08/22 00:14:39;;;;;;;8.02;4.57;;;;;;;26.87;51.38;97945.97;4939551;29;20058;-77
2022/08/22 00:17:21;;;;;;;8.52;5.10;;;;;;;26.83;51.54;97936.78;4926616;29;20027;-78
2022/08/22 00:20:01;;;;;;;9.02;4.90;;;;;;;26.81;51.39;97936.22;4940208;29;20090;-77
2022/08/22 00:22:32;;;;;;;6.65;5.00;;;;;;;26.82;51.34;97937.84;4941014;29;20475;-77
2022/08/22 00:25:06;;;;;;;6.53;4.53;;;;;;;26.81;51.26;97936.22;4956861;29;20042;-77
2022/08/22 00:27:37;;;;;;;9.13;5.35;;;;;;;26.78;51.39;97920.63;4939676;29;20031;-77
2022/08/22 00:30:07;;;;;;;11.43;5.20;;;;;;;26.78;51.19;97928.66;4924056;29;20039;-77
2022/08/22 00:32:41;;;;;;;9.52;4.68;;;;;;;26.77;51.05;97913.63;4923649;29;20043;-78
2022/08/22 00:35:15;;;;;;;8.07;5.30;;;;;;;26.81;50.91;97930.84;4934563;28;20517;-78
2022/08/22 00:37:44;;;;;;;6.80;4.60;;;;;;;26.80;51.29;97931.09;4927604;28;20494;-75
2022/08/22 00:40:27;;;;;;;8.48;5.03;;;;;;;26.76;51.07;97925.44;4942537;28;20093;-75
2022/08/22 00:43:07;;;;;;;8.13;5.55;;;;;;;26.75;51.36;97921.13;4975188;28;20027;-73
2022/08/22 00:46:08;;;;;;;8.50;5.22;;;;;;;26.71;51.45;97922.66;4958213;28;20051;-73
2022/08/22 00:48:52;;;;;;;10.88;5.40;;;;;;;26.65;51.30;97921.75;4934857;29;20046;-73
2022/08/22 00:51:30;;;;;;;10.23;5.45;;;;;;;26.62;51.77;97930.22;4934673;29;20056;-74
2022/08/22 00:54:17;;;;;;;7.78;5.30;;;;;;;26.60;51.69;97935.03;4934499;29;20044;-73
2022/08/22 00:56:51;;;;;;;;;;;;;;;26.59;51.69;97940.63;4921357;29;20043;-73
2022/08/22 00:59:53;;;;;;;14.38;5.68;;;;;;;26.53;51.44;97931.66;4950283;29;20366;-73
2022/08/22 01:02:18;;;;;;;10.05;5.60;;;;;;;26.53;51.95;97935.19;4902524;29;20103;-73
2022/08/22 01:05:15;;;;;;;10.18;5.80;;;;;;;26.47;51.94;97928.09;4934704;29;20043;-73
2022/08/22 01:08:04;;;;;;;9.05;5.47;;;;;;;26.43;51.83;97921.59;4921378;29;20551;-73
2022/08/22 01:10:41;;;;;;;11.93;5.90;;;;;;;26.40;51.96;97923.94;4935319;29;20043;-73
2022/08/22 01:13:28;;;;;;;11.88;5.40;;;;;;;26.41;51.63;97925.56;4919159;29;20043;-73
2022/08/22 01:16:04;;;;;;;8.30;5.38;;;;;;;26.35;51.52;97924.66;4934465;29;20040;-73
2022/08/22 01:18:55;;;;;;;6.88;5.38;;;;;;;26.39;51.21;97931.16;4902937;29;20039;-73
2022/08/22 01:21:45;;;;;;;9.43;5.03;;;;;;;26.38;51.23;97924.19;4935689;29;20043;-73
2022/08/22 01:25:16;;;;;;;8.25;4.90;;;;;;;26.38;50.60;97928.72;4964347;28;20502;-73
2022/08/22 01:27:41;;;;;;;7.57;4.40;;;;;;;26.33;50.20;97914.19;4993904;28;20038;-72
2022/08/22 01:30:24;;;;;;;10.13;4.15;;;;;;;26.32;50.03;97917.91;4977892;28;20030;-73
2022/08/22 01:33:11;;;;;;;7.00;4.20;;;;;;;26.30;50.07;97914.69;4976619;28;20470;-73
2022/08/22 01:35:52;;;;;;;6.28;3.83;;;;;;;26.26;49.58;97910.84;4993520;28;20056;-73
2022/08/22 01:38:24;;;;;;;8.68;3.72;;;;;;;26.18;49.23;97914.72;4993985;28;20030;-73
2022/08/22 01:40:58;;;;;;;8.48;3.47;;;;;;;26.20;49.16;97911.81;4976505;28;20034;-73
2022/08/22 01:43:36;;;;;;;5.40;3.47;;;;;;;26.21;49.41;97920.66;4993612;28;20034;-73
2022/08/22 01:46:26;;;;;;;8.85;3.47;;;;;;;26.20;49.01;97921.69;4994145;28;20026;-73
2022/08/22 01:48:51;;;;;;;5.93;3.63;;;;;;;26.18;49.19;97919.25;4976060;28;20465;-73
2022/08/22 01:51:31;;;;;;;7.40;3.35;;;;;;;26.16;48.76;97916.00;4993757;28;20030;-73
2022/08/22 01:54:04;;;;;;;5.65;3.20;;;;;;;26.15;48.53;97909.84;4961258;28;20076;-73
2022/08/22 01:56:41;;;;;;;11.07;3.30;;;;;;;26.17;48.45;97910.44;4960497;28;20030;-74
2022/08/22 01:59:13;;;;;;;9.07;3.33;;;;;;;26.15;48.02;97915.19;4959533;28;20109;-74
2022/08/22 02:01:48;;;;;;;4.82;2.80;;;;;;;26.17;47.95;97918.47;4976439;28;20038;-74
2022/08/22 02:04:47;;;;;;;5.85;3.10;;;;;;;26.18;48.28;97917.38;4993139;28;20500;-74
2022/08/22 02:07:20;;;;;;;6.75;3.40;;;;;;;26.19;48.08;97923.56;4975230;28;20461;-74
2022/08/22 02:10:00;;;;;;;5.07;3.10;;;;;;;26.18;47.94;97916.59;4959726;28;20033;-74
2022/08/22 02:12:35;;;;;;;7.95;3.13;;;;;;;26.20;47.86;97921.69;4956499;28;20026;-74
2022/08/22 02:15:14;;;;;;;8.13;3.28;;;;;;;26.18;48.00;97916.59;4940503;28;20422;-75
2022/08/22 02:17:58;;;;;;;6.38;2.80;;;;;;;26.19;47.49;97918.22;4940956;28;20050;-74
2022/08/22 02:20:24;;;;;;;6.03;2.80;;;;;;;26.20;47.67;97911.00;4973742;28;20478;-74
2022/08/22 02:22:54;;;;;;;5.85;2.90;;;;;;;26.20;47.50;97911.00;4973349;28;20142;-74
2022/08/22 02:25:53;;;;;;;11.32;3.30;;;;;;;26.20;47.64;97916.34;4956540;28;20027;-74
2022/08/22 02:28:39;;;;;;;4.63;3.00;;;;;;;26.17;47.65;97910.44;4879706;29;20044;-74
2022/08/22 02:31:08;;;;;;;5.47;3.22;;;;;;;26.22;47.62;97914.22;4879597;29;20123;-74
2022/08/22 02:33:49;;;;;;;7.38;2.83;;;;;;;26.16;47.29;97919.50;4879530;29;20108;-74
2022/08/22 02:36:21;;;;;;;6.65;3.00;;;;;;;26.18;47.40;97933.44;4859982;29;20052;-74
2022/08/22 02:38:53;;;;;;;9.30;3.15;;;;;;;26.23;47.33;97929.25;4861165;29;20140;-74
2022/08/22 02:41:30;;;;;;;4.43;3.08;;;;;;;26.15;47.49;97923.22;4846417;29;20429;-74
2022/08/22 02:44:02;;;;;;;11.63;2.97;;;;;;;26.18;47.44;97928.09;4860891;29;20101;-74
2022/08/22 02:46:53;;;;;;;6.63;3.00;;;;;;;26.24;47.59;97937.03;4846046;29;20417;-74
2022/08/22 02:49:44;;;;;;;5.53;2.83;;;;;;;26.30;47.10;97932.59;4860784;29;20073;-74
2022/08/22 02:52:40;;;;;;;5.57;2.90;;;;;;;26.32;47.35;97933.97;4860730;29;20053;-74
2022/08/22 02:55:27;;;;;;;7.25;3.00;;;;;;;26.33;46.77;97932.94;4846842;29;20070;-73
2022/08/22 02:57:59;;;;;;;5.60;2.85;;;;;;;26.28;47.17;97919.47;4862826;29;20496;-74
2022/08/22 03:00:29;;;;;;;7.35;3.33;;;;;;;26.30;47.06;97922.69;4846192;29;20124;-73
2022/08/22 03:03:00;;;;;;;5.82;3.28;;;;;;;26.32;47.31;97928.63;4845758;29;20603;-73
2022/08/22 03:05:35;;;;;;;6.15;2.63;;;;;;;26.32;47.19;97933.97;4908104;29;20032;-76
2022/08/22 03:08:16;;;;;;;5.82;2.92;;;;;;;26.30;47.07;97937.97;4953660;29;20031;-72
2022/08/22 03:11:02;;;;;;;6.53;3.13;;;;;;;26.34;46.86;97947.91;4922044;29;20031;-73
2022/08/22 03:13:43;;;;;;;4.78;2.95;;;;;;;26.35;47.14;97940.72;4936723;29;20070;-73
2022/08/22 03:16:15;;;;;;;5.68;3.17;;;;;;;26.37;46.88;97949.31;4905774;29;20492;-73
2022/08/22 03:18:52;;;;;;;6.32;3.33;;;;;;;26.39;46.91;97954.41;4930991;28;20508;-73
2022/08/22 03:21:35;;;;;;;6.80;2.97;;;;;;;26.42;46.42;97962.78;4944418;28;20505;-73
2022/08/22 03:24:16;;;;;;;6.07;3.08;;;;;;;26.37;46.57;97957.34;4959520;28;20042;-73
2022/08/22 03:27:01;;;;;;;5.70;3.15;;;;;;;26.38;46.58;97955.47;4959630;28;20113;-73
2022/08/22 03:29:30;;;;;;;7.28;3.30;;;;;;;26.43;46.52;97960.94;4959393;28;20034;-75
2022/08/22 03:32:14;;;;;;;9.25;2.95;;;;;;;26.45;46.58;97956.94;4943518;28;20041;-72
2022/08/22 03:35:21;;;;;;;6.38;2.80;;;;;;;26.48;46.78;97967.19;4958930;28;20430;-77
2022/08/22 03:37:47;;;;;;;8.45;3.08;;;;;;;26.47;46.47;97973.59;4863919;29;20101;-72
2022/08/22 03:40:18;;;;;;;6.43;2.88;;;;;;;26.50;46.44;97965.09;4895189;29;20045;-73
2022/08/22 03:42:52;;;;;;;6.28;3.13;;;;;;;26.50;45.95;97959.75;4864043;29;20047;-71
2022/08/22 03:45:33;;;;;;;9.15;2.95;;;;;;;26.47;46.11;97962.06;4879772;29;20037;-71
2022/08/22 03:48:14;;;;;;;7.78;3.00;;;;;;;26.49;46.58;97968.00;4880343;29;20049;-71
2022/08/22 03:50:54;;;;;;;7.43;2.88;;;;;;;26.48;46.39;97953.78;4863984;29;20900;-71
2022/08/22 03:53:31;;;;;;;5.63;2.80;;;;;;;26.48;46.67;97959.16;4878278;29;20045;-72
2022/08/22 03:56:12;;;;;;;7.80;3.00;;;;;;;26.47;46.34;97954.88;4860587;29;20073;-71
2022/08/22 03:58:59;;;;;;;7.53;2.92;;;;;;;26.53;46.44;97961.09;4844975;29;20060;-72
2022/08/22 04:01:39;;;;;;;11.82;3.05;;;;;;;26.50;46.61;97953.56;4861085;29;20052;-72
2022/08/22 04:04:30;;;;;;;7.70;3.15;;;;;;;26.51;46.70;97957.88;4845033;29;20449;-75
2022/08/22 04:07:11;;;;;;;11.43;3.50;;;;;;;26.58;46.43;97969.22;4805183;29;20047;-71
2022/08/22 04:10:02;;;;;;;6.22;3.05;;;;;;;26.63;47.60;97957.81;4776832;29;20619;-74
2022/08/22 04:12:52;;;;;;;6.38;3.20;;;;;;;26.74;47.11;97956.97;4809910;29;20123;-71
2022/08/22 04:15:23;;;;;;;5.25;3.03;;;;;;;26.65;46.39;97961.91;4897561;29;20028;-71
2022/08/22 04:18:29;;;;;;;6.93;3.28;;;;;;;26.81;46.13;97970.22;4897418;29;20057;-71
2022/08/22 04:21:14;;;;;;;8.90;3.30;;;;;;;26.83;45.99;97976.94;4876498;29;20131;-71
2022/08/22 04:23:49;;;;;;;6.72;2.95;;;;;;;26.75;46.69;97984.56;4882847;29;20037;-69
2022/08/22 04:26:46;;;;;;;9.77;3.50;;;;;;;26.84;49.12;97983.91;4885386;29;20137;-72
2022/08/22 04:29:23;;;;;;;;;;;;;;;26.91;48.76;97978.41;4860370;29;20049;-75
2022/08/22 04:32:10;;;;;;;11.15;3.35;;;;;;;26.99;48.22;97979.88;4825755;29;19947;-74
2022/08/22 04:34:48;;;;;;;8.67;3.17;;;;;;;27.03;45.89;97986.38;4841194;29;20062;-69
2022/08/22 04:37:20;;;;;;;6.68;3.20;;;;;;;27.03;45.60;97987.19;4842262;29;20061;-72
2022/08/22 04:40:04;;;;;;;13.38;3.28;;;;;;;27.08;47.67;97986.47;4841292;29;20034;-73
2022/08/22 04:42:35;;;;;;;6.82;2.80;;;;;;;27.23;47.39;97985.88;4841546;29;20037;-69
2022/08/22 04:45:08;;;;;;;7.82;2.80;;;;;;;27.27;45.06;97979.00;4891956;29;20122;-71
2022/08/22 04:48:04;;;;;;;6.38;2.90;;;;;;;27.53;45.73;97990.13;4920094;29;20047;-73
2022/08/22 04:50:38;;;;;;;12.57;3.42;;;;;;;28.32;45.59;97981.84;4933597;29;20035;-76
2022/08/22 04:53:13;;;;;;;8.77;3.30;;;;;;;29.21;43.27;97987.84;4932659;29;20578;-74
2022/08/22 04:56:01;;;;;;;7.10;3.00;;;;;;;30.39;38.83;97990.44;4902316;29;20032;-69
2022/08/22 04:58:48;;;;;;;8.55;3.20;;;;;;;31.49;38.21;97985.72;4919086;29;20035;-75
2022/08/22 05:01:16;;;;;;;8.27;2.60;;;;;;;32.63;35.97;97992.41;4934174;29;20042;-77
2022/08/22 05:03:53;;;;;;;15.40;3.50;;;;;;;33.58;34.11;97991.41;4934369;29;20080;-70
2022/08/22 05:06:19;;;;;;;14.63;3.10;;;;;;;34.47;32.72;97984.75;4944683;28;20474;-70
2022/08/22 05:08:45;;;;;;;17.58;3.05;;;;;;;35.17;31.40;97989.41;4941411;28;20354;-72
2022/08/22 05:11:10;;;;;;;6.97;2.90;;;;;;;35.92;29.99;97989.47;4941725;28;20035;-74
2022/08/22 05:13:49;;;;;;;12.13;2.65;;;;;;;36.64;29.20;97987.97;4931794;28;20034;-75
2022/08/22 05:16:18;;;;;;;13.32;2.40;;;;;;;37.21;27.84;97991.03;4925561;28;20035;-73
2022/08/22 05:18:48;;;;;;;7.97;2.60;;;;;;;37.81;27.37;97988.94;4941704;28;20035;-75
2022/08/22 05:21:14;;;;;;;16.42;2.70;;;;;;;38.33;26.68;97988.28;4925994;28;20553;-74
2022/08/22 05:23:48;;;;;;;11.00;2.10;;;;;;;38.79;25.57;97977.91;4957771;28;20035;-81
2022/08/22 05:26:14;;;;;;;12.07;2.53;;;;;;;39.25;24.54;97984.63;4941994;28;20037;-80
2022/08/22 05:28:47;;;;;;;6.57;2.00;;;;;;;39.67;24.02;97990.28;4941929;28;20027;-79
2022/08/22 05:31:14;;;;;;;6.75;2.10;;;;;;;40.02;23.30;97995.63;4928840;28;20038;-76
2022/08/22 05:33:41;;;;;;;7.53;2.40;;;;;;;40.37;23.12;97991.88;4943680;28;20494;-77
2022/08/22 05:36:10;;;;;;;6.55;2.15;;;;;;;40.68;22.75;97991.50;4948115;28;20113;-79
2022/08/22 05:38:42;;;;;;;7.57;1.90;;;;;;;41.04;22.52;97982.69;4948418;28;20033;-77
2022/08/22 05:41:10;;;;;;;4.60;1.90;;;;;;;41.39;22.04;97997.97;4935024;28;20038;-79
2022/08/22 05:43:38;;;;;;;4.57;1.73;;;;;;;41.67;21.65;97994.56;4947811;28;20022;-80
2022/08/22 05:46:05;;;;;;;6.60;1.60;;;;;;;41.93;21.02;97992.34;4934720;28;20046;-78
2022/08/22 05:48:38;;;;;;;6.53;1.90;;;;;;;42.18;20.74;97997.84;4948928;28;20026;-78
2022/08/22 05:51:53;;;;;;;4.68;2.00;;;;;;;42.38;20.28;98003.50;4950444;28;20034;-75
2022/08/22 05:54:23;;;;;;;8.33;2.00;;;;;;;42.73;19.90;98013.94;4883410;29;20228;-77
2022/08/22 05:57:17;;;;;;;3.38;1.90;;;;;;;42.99;20.08;98010.81;4867201;29;20140;-77
2022/08/22 05:59:43;;;;;;;4.25;1.60;;;;;;;43.15;19.60;98008.09;4853297;29;20045;-75
2022/08/22 06:02:12;;;;;;;4.90;2.17;;;;;;;43.25;19.64;98013.06;4870314;29;20037;-78
2022/08/22 06:04:52;;;;;;;4.40;1.85;;;;;;;43.50;19.40;98010.19;4872809;29;20045;-80
2022/08/22 06:07:24;;;;;;;4.00;1.70;;;;;;;43.69;18.92;98012.25;4859439;29;20025;-79
2022/08/22 06:10:03;;;;;;;5.32;1.75;;;;;;;43.38;19.35;98002.84;4868354;29;20150;-79
2022/08/22 06:12:42;;;;;;;6.82;1.70;;;;;;;43.78;18.79;98003.81;4874127;29;20036;-78
2022/08/22 06:15:21;;;;;;;5.60;2.00;;;;;;;43.98;18.68;98005.53;4857424;29;20041;-79
2022/08/22 06:17:56;;;;;;;3.83;1.65;;;;;;;44.21;18.51;98004.88;4875928;29;20029;-80
2022/08/22 06:20:51;;;;;;;5.97;1.73;;;;;;;44.33;18.12;98006.69;4859813;29;20081;-80
2022/08/22 06:23:22;;;;;;;5.97;1.80;;;;;;;44.38;17.82;97998.97;4862839;29;20524;-77
2022/08/22 06:25:47;;;;;;;20.63;2.45;;;;;;;44.38;17.80;98000.94;4883295;29;20100;-76
2022/08/22 06:28:17;;;;;;;10.90;2.07;;;;;;;44.44;17.90;98003.03;4859890;29;20040;-78
2022/08/22 06:30:44;;;;;;;11.07;2.17;;;;;;;44.49;18.18;98001.94;4909421;28;20034;-77
2022/08/22 06:33:11;;;;;;;8.80;2.30;;;;;;;44.56;17.76;98006.81;4947626;28;20038;-79
2022/08/22 06:38:32;;;;;;;8.98;2.00;;;;;;;44.66;17.31;98006.25;4967189;28;20034;-77
2022/08/22 06:41:01;;;;;;;9.88;2.33;;;;;;;43.46;18.69;98003.81;4933545;28;20027;-79
2022/08/22 06:43:29;;;;;;;5.10;2.40;;;;;;;42.49;19.58;98004.63;4932933;28;20033;-80
2022/08/22 06:45:54;;;;;;;14.18;3.13;;;;;;;41.75;20.52;98010.13;4947291;28;20037;-81
2022/08/22 06:48:21;;;;;;;366.80;26.98;;;;;;;41.10;21.23;98007.88;4946898;28;20034;-80
2022/08/22 06:50:49;;;;;;;163.70;11.50;;;;;;;40.57;21.80;98009.47;4948802;28;20456;-80
2022/08/22 06:53:16;;;;;;;135.35;12.40;;;;;;;40.06;22.22;98012.16;4964114;28;20074;-80
2022/08/22 06:55:56;;;;;;;113.63;10.88;;;;;;;39.47;23.30;98012.81;4980176;28;20054;-80
2022/08/22 06:58:29;;;;;;;209.50;14.93;;;;;;;38.99;23.46;98010.00;4947041;28;20025;-81
2022/08/22 07:00:57;;;;;;;163.05;12.93;;;;;;;38.49;23.98;98007.72;4940070;28;20034;-79
2022/08/22 07:03:33;;;;;;;128.95;11.48;;;;;;;38.05;24.70;98010.34;4946373;28;20521;-81
2022/08/22 07:05:59;;;;;;;96.10;9.82;;;;;;;37.70;25.20;98014.84;4947381;28;20038;-76
2022/08/22 07:08:25;;;;;;;78.95;8.98;;;;;;;37.41;25.65;98010.66;4946186;28;20460;-77
2022/08/22 07:11:26;;;;;;;65.90;8.05;;;;;;;37.12;25.98;98017.34;4947943;28;20030;-76
2022/08/22 07:14:01;;;;;;;55.90;6.65;;;;;;;36.95;25.83;98020.72;4962132;28;20041;-79
2022/08/22 07:16:32;;;;;;;78.90;8.18;;;;;;;36.86;26.28;98014.41;4948093;28;20407;-80
2022/08/22 07:18:58;;;;;;;10.65;3.55;;;;;;;36.61;27.86;98024.75;4936360;28;20038;-79
2022/08/22 07:21:27;;;;;;;23.83;4.13;;;;;;;36.24;28.00;98015.69;4964527;28;20026;-81
2022/08/22 07:23:52;;;;;;;28.60;4.25;;;;;;;36.00;28.10;98022.16;4932934;28;20093;-82
2022/08/22 07:26:52;;;;;;;18.25;3.92;;;;;;;35.68;28.64;98029.22;4930862;28;20038;-82
2022/08/22 07:29:41;;;;;;;12.68;3.83;;;;;;;35.38;28.78;98033.28;4962305;28;20490;-80
2022/08/22 07:32:18;;;;;;;18.40;3.67;;;;;;;35.11;29.57;98036.69;4963760;28;20077;-80
2022/08/22 07:35:16;;;;;;;19.85;3.80;;;;;;;34.90;29.60;98036.19;4963529;28;20065;-79
2022/08/22 07:37:49;;;;;;;13.38;3.80;;;;;;;34.72;29.92;98038.56;4953841;28;20486;-79
2022/08/22 07:40:20;;;;;;;13.68;4.05;;;;;;;34.54;30.12;98042.88;4963861;28;20030;-81
2022/08/22 07:43:02;;;;;;;11.50;3.30;;;;;;;34.36;30.39;98041.75;4932150;28;20116;-80
2022/08/22 07:45:33;;;;;;;18.70;3.60;;;;;;;34.20;30.88;98043.81;4949890;28;20076;-81
2022/08/22 07:48:20;;;;;;;20.52;3.70;;;;;;;34.09;30.71;98045.03;4962714;28;20403;-82
2022/08/22 07:51:12;;;;;;;11.35;3.33;;;;;;;33.96;31.21;98041.09;4980420;28;20022;-74
2022/08/22 07:53:46;;;;;;;14.23;3.80;;;;;;;33.93;31.08;98043.59;4948151;28;20406;-78
2022/08/22 07:56:14;;;;;;;7.65;3.60;;;;;;;33.94;31.04;98043.31;4938984;28;20150;-72
2022/08/22 07:58:40;;;;;;;7.03;3.13;;;;;;;34.00;31.17;98044.88;4938381;28;20435;-75
2022/08/22 08:01:10;;;;;;;16.48;3.92;;;;;;;34.15;30.68;98045.78;4923389;28;20037;-74
2022/08/22 08:03:35;;;;;;;9.40;3.70;;;;;;;34.35;30.81;98045.56;4938677;28;20031;-79
2022/08/22 08:06:01;;;;;;;11.25;3.38;;;;;;;34.51;30.62;98046.19;4940873;28;20041;-76
2022/08/22 08:08:40;;;;;;;7.97;3.40;;;;;;;34.82;30.23;98034.13;4941812;28;20418;-76
2022/08/22 08:11:07;;;;;;;15.93;3.50;;;;;;;35.41;29.40;98037.31;4942603;28;20109;-76
2022/08/22 08:13:35;;;;;;;9.05;3.20;;;;;;;35.93;28.70;98032.63;4926483;28;20030;-76
2022/08/22 08:16:02;;;;;;;10.32;3.40;;;;;;;36.68;27.51;98037.91;4942066;28;20039;-75
2022/08/22 08:18:29;;;;;;;9.35;3.70;;;;;;;37.51;26.64;98034.88;4942565;28;20033;-77
2022/08/22 08:21:00;;;;;;;7.33;2.87;;;;;;;38.05;25.96;98031.31;4942073;28;20117;-76
2022/08/22 08:23:28;;;;;;;12.27;3.35;;;;;;;37.64;26.74;98035.94;4926505;28;20058;-79
2022/08/22 08:26:02;;;;;;;8.65;3.08;;;;;;;37.29;27.23;98031.09;4942781;28;20031;-89
2022/08/22 08:28:33;;;;;;;17.70;3.47;;;;;;;37.14;27.22;98041.50;4946655;28;20030;-79
2022/08/22 08:31:36;;;;;;;19.08;3.70;;;;;;;36.88;27.73;98039.38;4947458;28;20030;-79
2022/08/22 08:34:19;;;;;;;18.75;3.25;;;;;;;36.74;27.65;98037.50;4865383;29;20078;-80
2022/08/22 08:36:50;;;;;;;9.75;3.33;;;;;;;36.72;27.50;98038.88;4897357;29;20033;-80
2022/08/22 08:39:23;;;;;;;17.33;3.42;;;;;;;37.31;26.92;98041.66;4897175;29;20044;-79
2022/08/22 08:42:07;;;;;;;10.60;3.20;;;;;;;37.51;26.96;98044.97;4865957;29;20075;-79
2022/08/22 08:44:48;;;;;;;13.43;3.40;;;;;;;37.55;26.81;98033.16;4899162;29;20535;-79
2022/08/22 08:47:35;;;;;;;33.25;4.20;;;;;;;37.36;26.88;98038.81;4897343;29;20132;-79
2022/08/22 08:50:06;;;;;;;;;;;;;;;37.41;26.78;98033.22;4897646;29;20052;-80
2022/08/22 08:52:52;;;;;;;32.75;4.10;;;;;;;37.97;26.15;98036.44;4897557;29;20022;-79
2022/08/22 08:55:37;;;;;;;35.03;4.22;;;;;;;38.53;25.26;98034.00;4866197;29;20132;-79
2022/08/22 08:58:15;;;;;;;15.77;3.70;;;;;;;39.02;25.15;98022.19;4897041;29;20088;-79
2022/08/22 09:00:41;;;;;;;22.52;4.05;;;;;;;39.52;24.76;98026.28;4897935;29;20095;-79
2022/08/22 09:03:30;;;;;;;16.05;3.90;;;;;;;39.95;24.30;98033.56;4881233;29;20043;-79
2022/08/22 09:06:05;;;;;;;13.88;3.35;;;;;;;40.41;23.30;98029.19;4897234;29;20051;-79
2022/08/22 09:08:53;;;;;;;13.77;3.15;;;;;;;40.67;22.60;98025.47;4880692;29;20465;-79
2022/08/22 09:11:43;;;;;;;10.82;3.33;;;;;;;40.63;22.83;98028.06;4985882;28;20039;-79
2022/08/22 09:14:15;;;;;;;11.70;3.03;;;;;;;40.93;22.34;98016.25;4980051;28;20034;-80
2022/08/22 09:16:47;;;;;;;11.27;3.50;;;;;;;41.16;22.29;98022.19;4976490;28;20026;-79
2022/08/22 09:19:28;;;;;;;10.25;3.30;;;;;;;41.04;22.14;98020.22;4977113;28;20026;-78
2022/08/22 09:22:12;;;;;;;20.52;3.80;;;;;;;40.61;22.49;98022.16;4994343;28;20053;-80
2022/08/22 09:24:54;;;;;;;14.85;3.10;;;;;;;40.19;22.70;98021.28;4995176;28;20030;-79
2022/08/22 09:27:37;;;;;;;13.93;3.05;;;;;;;39.74;22.80;98011.63;4960942;28;20034;-78
2022/08/22 09:30:10;;;;;;;14.85;3.10;;;;;;;39.57;23.46;98010.59;4961112;28;20065;-80
2022/08/22 09:32:44;;;;;;;9.88;3.00;;;;;;;39.50;23.23;98012.97;4961485;28;20034;-79
2022/08/22 09:35:10;;;;;;;14.93;3.33;;;;;;;39.21;23.52;98008.25;4994424;28;20061;-79
2022/08/22 09:38:14;;;;;;;9.13;2.97;;;;;;;38.78;23.79;98019.94;4994357;28;20038;-80
2022/08/22 09:41:05;;;;;;;13.18;3.20;;;;;;;38.51;24.35;98016.41;4976150;28;20073;-80
2022/08/22 09:43:45;;;;;;;14.68;2.92;;;;;;;38.42;24.10;98013.63;4955177;28;20038;-79
2022/08/22 09:46:30;;;;;;;13.82;3.20;;;;;;;38.54;24.36;98013.03;4941535;28;20078;-79
2022/08/22 09:49:11;;;;;;;11.52;2.70;;;;;;;38.59;24.13;98004.69;4927625;28;20042;-79
2022/08/22 09:51:41;;;;;;;19.67;3.70;;;;;;;38.67;24.43;98003.91;4925549;28;20030;-79
2022/08/22 09:54:18;;;;;;;17.83;2.97;;;;;;;38.71;23.89;98004.06;4941526;28;20027;-79
2022/08/22 09:56:48;;;;;;;10.13;3.17;;;;;;;38.79;23.91;97992.34;4941906;28;20034;-79
2022/08/22 09:59:22;;;;;;;12.00;3.45;;;;;;;38.78;24.25;97996.22;4957989;28;20139;-78
2022/08/22 10:01:47;;;;;;;14.82;3.50;;;;;;;38.64;24.65;97999.09;4944992;28;20034;-78
2022/08/22 10:04:36;;;;;;;19.42;3.50;;;;;;;38.77;24.23;97996.53;4982099;28;20049;-78
2022/08/22 10:07:11;;;;;;;26.58;3.80;;;;;;;38.54;24.32;97989.28;4950922;28;20034;-79
2022/08/22 10:09:42;;;;;;;27.80;3.60;;;;;;;38.55;24.29;97993.59;4966444;28;20080;-78
2022/08/22 10:12:15;;;;;;;18.40;3.03;;;;;;;38.59;24.69;97993.78;4949837;28;20061;-79
2022/08/22 10:14:59;;;;;;;35.22;3.58;;;;;;;38.67;24.89;97992.22;4931480;28;20034;-77
2022/08/22 10:17:31;;;;;;;23.65;3.33;;;;;;;38.76;24.54;97984.00;4980941;28;20034;-78
2022/08/22 10:20:04;;;;;;;19.30;3.40;;;;;;;38.79;24.56;97983.38;4963678;28;20030;-78
2022/08/22 10:23:08;;;;;;;16.27;3.78;;;;;;;38.77;24.45;97978.25;4932505;28;20097;-78
2022/08/22 10:25:40;;;;;;;15.48;3.33;;;;;;;38.77;24.32;97970.06;4903443;29;20504;-79
2022/08/22 10:28:32;;;;;;;10.75;3.10;;;;;;;38.70;24.45;97972.47;4888622;29;20504;-77
2022/08/22 10:31:03;;;;;;;11.07;3.20;;;;;;;38.71;24.31;97972.16;4888610;29;20036;-76
2022/08/22 10:33:45;;;;;;;11.07;3.28;;;;;;;38.67;24.66;97968.47;4886867;29;20032;-77
2022/08/22 10:36:22;;;;;;;9.95;3.10;;;;;;;38.61;24.48;97963.47;4873626;29;20052;-80
2022/08/22 10:38:52;;;;;;;5.72;2.97;;;;;;;38.57;24.24;97962.50;4889515;29;20032;-80
2022/08/22 10:41:25;;;;;;;10.75;2.88;;;;;;;38.45;25.34;97966.66;4901905;29;20132;-77
2022/08/22 10:43:50;;;;;;;17.58;3.13;;;;;;;38.23;25.68;97978.50;4891708;29;20052;-71
2022/08/22 10:46:52;;;;;;;15.50;3.53;;;;;;;37.99;25.49;97966.06;4896793;29;20506;-73
2022/08/22 10:49:32;;;;;;;9.70;3.83;;;;;;;37.87;25.86;97952.25;4856643;29;20106;-70
2022/08/22 10:52:09;;;;;;;5.88;3.33;;;;;;;37.89;24.75;97950.03;4843617;29;20449;-70
2022/08/22 10:54:50;;;;;;;7.35;3.30;;;;;;;37.85;25.37;97951.00;4841398;29;20045;-71
2022/08/22 10:57:35;;;;;;;7.95;3.50;;;;;;;37.57;25.15;97945.72;4887781;29;20059;-70
2022/08/22 11:00:37;;;;;;;9.32;3.83;;;;;;;37.35;25.51;97949.31;4894269;29;20111;-69
2022/08/22 11:03:11;;;;;;;6.28;3.80;;;;;;;37.37;25.51;97949.78;4894034;29;20036;-69
2022/08/22 11:05:39;;;;;;;6.78;3.53;;;;;;;37.11;25.36;97942.28;4894350;29;20055;-70
2022/08/22 11:08:36;;;;;;;7.65;3.58;;;;;;;36.97;25.94;97939.63;4862956;29;20409;-72
2022/08/22 11:11:17;;;;;;;9.40;3.45;;;;;;;36.80;26.01;97944.94;4863183;29;20036;-70
2022/08/22 11:13:52;;;;;;;10.23;3.83;;;;;;;36.65;26.03;97930.56;4894189;29;20416;-71
2022/08/22 11:16:54;;;;;;;6.57;3.50;;;;;;;36.46;26.50;97925.31;4893748;29;20083;-70
2022/08/22 11:19:42;;;;;;;10.10;3.53;;;;;;;36.35;26.86;97922.03;4893859;29;20041;-69
2022/08/22 11:22:38;;;;;;;7.00;3.38;;;;;;;36.25;26.50;97929.59;4878495;29;20047;-70
2022/08/22 11:25:16;;;;;;;10.27;3.43;;;;;;;36.04;26.04;97933.53;4904468;28;20029;-69
2022/08/22 11:28:02;;;;;;;9.95;3.58;;;;;;;35.82;26.19;97926.13;4972683;28;20061;-70
2022/08/22 11:30:42;;;;;;;8.50;3.47;;;;;;;35.73;26.03;97922.47;4938686;28;20058;-68
2022/08/22 11:33:26;;;;;;;10.80;3.28;;;;;;;35.66;25.89;97925.59;4939228;28;20105;-69
2022/08/22 11:36:08;;;;;;;6.82;3.42;;;;;;;35.62;26.01;97913.72;4954683;28;20054;-71
2022/08/22 11:38:48;;;;;;;13.88;3.38;;;;;;;35.53;26.30;97909.31;4954581;28;20545;-69
2022/08/22 11:41:23;;;;;;;13.27;3.20;;;;;;;35.55;25.74;97897.06;4956790;28;20035;-69
2022/08/22 11:44:09;;;;;;;6.85;3.05;;;;;;;35.61;26.27;97901.25;4943780;28;20027;-68
2022/08/22 11:46:46;;;;;;;11.40;3.30;;;;;;;35.65;26.13;97896.03;4975494;28;20548;-68
2022/08/22 11:49:14;;;;;;;8.98;3.13;;;;;;;35.65;25.62;97899.53;4942574;28;20107;-69
2022/08/22 11:51:58;;;;;;;5.22;2.95;;;;;;;35.65;24.80;97904.97;4975315;28;20038;-69
2022/08/22 11:54:56;;;;;;;9.43;2.88;;;;;;;35.59;24.62;97892.63;4975701;28;20038;-68
2022/08/22 11:57:32;;;;;;;7.55;2.95;;;;;;;35.61;24.50;97893.09;4943851;28;20304;-68
2022/08/22 12:00:22;;;;;;;6.20;2.92;;;;;;;35.55;24.29;97904.38;4972967;28;20031;-68
2022/08/22 12:03:16;;;;;;;5.82;2.47;;;;;;;35.45;23.86;97889.88;4977357;28;20466;-69
2022/08/22 12:05:59;;;;;;;5.57;2.50;;;;;;;35.47;23.79;97901.28;4962541;28;20034;-68
2022/08/22 12:08:39;;;;;;;10.30;2.10;;;;;;;35.43;23.23;97897.53;4980076;28;20034;-68
2022/08/22 12:11:25;;;;;;;8.63;2.75;;;;;;;35.41;23.06;97894.31;4978716;28;20421;-68
2022/08/22 12:13:56;;;;;;;4.55;2.25;;;;;;;35.43;23.08;97891.31;4962135;28;20423;-69
2022/08/22 12:16:37;;;;;;;7.40;2.58;;;;;;;35.43;23.05;97889.41;4978124;28;20040;-68
2022/08/22 12:19:13;;;;;;;5.68;2.97;;;;;;;35.39;23.17;97888.38;4978053;28;20034;-68
2022/08/22 12:21:57;;;;;;;5.10;2.45;;;;;;;35.40;23.48;97891.91;4977671;28;20061;-69
2022/08/22 12:24:49;;;;;;;7.18;2.42;;;;;;;35.45;23.29;97884.47;4977923;28;20030;-67